createdAt,value
2016-11-11T00:00:00.351Z,0
2016-11-11T00:01:00.411Z,0
2016-11-11T00:02:00.467Z,0
2016-11-11T00:03:00.518Z,0
2016-11-11T00:04:00.571Z,0
2016-11-11T00:05:00.628Z,0
2016-11-11T00:06:00.688Z,0
2016-11-11T00:07:00.753Z,0
2016-11-11T00:08:00.796Z,0
2016-11-11T00:09:00.839Z,0
2016-11-11T00:10:00.915Z,0
2016-11-11T00:11:00.968Z,0
2016-11-11T00:12:01.026Z,0
2016-11-11T00:13:01.088Z,0
2016-11-11T00:14:01.133Z,0
2016-11-11T00:15:01.178Z,0
2016-11-11T00:16:01.247Z,0
2016-11-11T00:17:01.295Z,0
2016-11-11T00:18:01.346Z,0
2016-11-11T00:19:01.426Z,0
2016-11-11T00:20:01.452Z,0
2016-11-11T00:21:01.517Z,0
2016-11-11T00:22:01.558Z,0
2016-11-11T00:23:01.637Z,0
2016-11-11T00:24:01.693Z,0
2016-11-11T00:25:01.727Z,0
2016-11-11T00:26:01.784Z,0
2016-11-11T00:27:01.864Z,0
2016-11-11T00:28:01.931Z,0
2016-11-11T00:29:01.986Z,0
2016-11-11T00:30:02.029Z,0
2016-11-11T00:31:02.081Z,0
2016-11-11T00:32:02.132Z,0
2016-11-11T00:33:02.174Z,0
2016-11-11T00:34:02.248Z,0
2016-11-11T00:35:02.311Z,0
2016-11-11T00:36:02.395Z,0
2016-11-11T00:37:02.415Z,0
2016-11-11T00:38:02.456Z,0
2016-11-11T00:39:02.539Z,0
2016-11-11T00:40:02.582Z,0
2016-11-11T00:41:02.628Z,0
2016-11-11T00:42:02.703Z,0
2016-11-11T00:43:03.039Z,0
2016-11-11T00:44:02.797Z,0
2016-11-11T00:45:03.137Z,0
2016-11-11T00:46:02.917Z,0
2016-11-11T00:47:02.958Z,0
2016-11-11T00:48:03.025Z,0
2016-11-11T00:49:03.070Z,0
2016-11-11T00:50:03.443Z,0
2016-11-11T00:51:03.178Z,0
2016-11-11T00:52:03.254Z,0
2016-11-11T00:53:03.294Z,0
2016-11-11T00:54:03.346Z,0
2016-11-11T00:55:03.415Z,0
2016-11-11T00:56:03.473Z,0
2016-11-11T00:57:03.505Z,0
2016-11-11T00:58:03.590Z,0
2016-11-11T00:59:03.625Z,0
2016-11-11T01:00:03.669Z,0
2016-11-11T01:01:03.728Z,0
2016-11-11T01:02:03.823Z,0
2016-11-11T01:03:03.851Z,0
2016-11-11T01:04:03.893Z,0
2016-11-11T01:05:03.962Z,0
2016-11-11T01:06:04.014Z,0
2016-11-11T01:07:04.079Z,0
2016-11-11T01:08:04.112Z,0
2016-11-11T01:09:04.270Z,0
2016-11-11T01:10:04.254Z,0
2016-11-11T01:11:04.617Z,0
2016-11-11T01:12:04.359Z,0
2016-11-11T01:13:04.427Z,0
2016-11-11T01:14:04.462Z,0
2016-11-11T01:15:04.540Z,0
2016-11-11T01:16:04.571Z,0
2016-11-11T01:17:04.637Z,0
2016-11-11T01:18:04.690Z,0
2016-11-11T01:19:05.067Z,0
2016-11-11T01:20:04.817Z,0
2016-11-11T01:21:04.855Z,0
2016-11-11T01:22:04.888Z,0
2016-11-11T01:23:04.968Z,0
2016-11-11T01:24:05.023Z,0
2016-11-11T01:25:05.087Z,0
2016-11-11T01:26:05.172Z,0
2016-11-11T01:27:05.173Z,0
2016-11-11T01:28:05.529Z,0
2016-11-11T01:29:05.316Z,0
2016-11-11T01:30:05.353Z,0
2016-11-11T01:31:05.426Z,0
2016-11-11T01:32:05.468Z,0
2016-11-11T01:33:05.534Z,0
2016-11-11T01:34:05.593Z,0
2016-11-11T01:35:05.931Z,0
2016-11-11T01:36:05.668Z,0
2016-11-11T01:37:05.715Z,0
2016-11-11T01:38:05.815Z,0
2016-11-11T01:39:05.846Z,0
2016-11-11T01:40:05.904Z,0
2016-11-11T01:41:05.959Z,0
2016-11-11T01:42:05.995Z,0
2016-11-11T01:43:06.052Z,0
2016-11-11T01:44:06.130Z,0
2016-11-11T01:45:06.219Z,0
2016-11-11T01:46:06.233Z,0
2016-11-11T01:47:06.297Z,0
2016-11-11T01:48:06.346Z,0
2016-11-11T01:49:06.448Z,0
2016-11-11T01:50:06.446Z,0
2016-11-11T01:51:06.509Z,0
2016-11-11T01:52:06.567Z,0
2016-11-11T01:53:06.623Z,0
2016-11-11T01:54:06.685Z,0
2016-11-11T01:55:06.750Z,0
2016-11-11T01:56:06.769Z,0
2016-11-11T01:57:06.859Z,0
2016-11-11T01:58:06.892Z,0
2016-11-11T01:59:06.945Z,0
2016-11-11T02:00:07.001Z,0
2016-11-11T02:01:07.097Z,0
2016-11-11T02:02:07.128Z,0
2016-11-11T02:03:07.183Z,0
2016-11-11T02:04:07.259Z,0
2016-11-11T02:05:07.308Z,0
2016-11-11T02:06:07.344Z,0
2016-11-11T02:07:07.411Z,0
2016-11-11T02:08:07.455Z,0
2016-11-11T02:09:07.535Z,0
2016-11-11T02:10:07.591Z,0
2016-11-11T02:11:07.622Z,0
2016-11-11T02:12:07.689Z,0
2016-11-11T02:13:07.734Z,0
2016-11-11T02:14:07.802Z,0
2016-11-11T02:15:07.841Z,0
2016-11-11T02:16:07.883Z,0
2016-11-11T02:17:07.958Z,0
2016-11-11T02:18:07.991Z,0
2016-11-11T02:19:08.081Z,0
2016-11-11T02:20:08.128Z,0
2016-11-11T02:21:08.166Z,0
2016-11-11T02:22:08.239Z,0
2016-11-11T02:23:08.269Z,0
2016-11-11T02:24:08.341Z,0
2016-11-11T02:25:08.412Z,0
2016-11-11T02:26:08.442Z,0
2016-11-11T02:27:08.514Z,0
2016-11-11T02:28:08.569Z,0
2016-11-11T02:29:08.639Z,0
2016-11-11T02:30:08.672Z,0
2016-11-11T02:31:08.716Z,0
2016-11-11T02:32:08.772Z,0
2016-11-11T02:33:08.836Z,0
2016-11-11T02:34:08.896Z,0
2016-11-11T02:35:08.943Z,0
2016-11-11T02:36:09.023Z,0
2016-11-11T02:37:09.072Z,0
2016-11-11T02:38:09.141Z,0
2016-11-11T02:39:09.175Z,0
2016-11-11T02:40:09.233Z,0
2016-11-11T02:41:09.305Z,0
2016-11-11T02:42:09.349Z,0
2016-11-11T02:43:09.417Z,0
2016-11-11T02:44:09.443Z,0
2016-11-11T02:45:09.519Z,0
2016-11-11T02:46:09.571Z,0
2016-11-11T02:47:09.607Z,0
2016-11-11T02:48:09.698Z,0
2016-11-11T02:49:09.750Z,0
2016-11-11T02:50:09.786Z,0
2016-11-11T02:51:09.861Z,0
2016-11-11T02:52:09.891Z,0
2016-11-11T02:53:09.954Z,0
2016-11-11T02:54:09.997Z,0
2016-11-11T02:55:10.388Z,0
2016-11-11T02:56:10.141Z,0
2016-11-11T02:57:10.482Z,0
2016-11-11T02:58:10.232Z,0
2016-11-11T02:59:10.300Z,0
2016-11-11T03:00:10.384Z,0
2016-11-11T03:01:10.403Z,0
2016-11-11T03:02:10.438Z,0
2016-11-11T03:03:10.507Z,0
2016-11-11T03:04:10.580Z,0
2016-11-11T03:05:10.604Z,0
2016-11-11T03:06:10.669Z,0
2016-11-11T03:07:10.724Z,0
2016-11-11T03:08:10.780Z,0
2016-11-11T03:09:10.845Z,0
2016-11-11T03:10:10.885Z,0
2016-11-11T03:11:10.952Z,0
2016-11-11T03:12:11.023Z,0
2016-11-11T03:13:11.080Z,0
2016-11-11T03:14:11.120Z,0
2016-11-11T03:15:11.189Z,0
2016-11-11T03:16:11.240Z,0
2016-11-11T03:17:11.304Z,0
2016-11-11T03:18:11.334Z,0
2016-11-11T03:19:11.391Z,0
2016-11-11T03:20:11.451Z,0
2016-11-11T03:21:11.494Z,0
2016-11-11T03:22:11.562Z,0
2016-11-11T03:23:11.639Z,0
2016-11-11T03:24:11.657Z,0
2016-11-11T03:25:11.723Z,0
2016-11-11T03:26:11.784Z,0
2016-11-11T03:27:11.839Z,0
2016-11-11T03:28:11.893Z,0
2016-11-11T03:29:11.951Z,0
2016-11-11T03:30:12.011Z,0
2016-11-11T03:31:12.074Z,0
2016-11-11T03:32:12.118Z,0
2016-11-11T03:33:12.159Z,0
2016-11-11T03:34:12.216Z,0
2016-11-11T03:35:12.264Z,0
2016-11-11T03:36:12.364Z,0
2016-11-11T03:37:12.375Z,0
2016-11-11T03:38:12.461Z,0
2016-11-11T03:39:12.514Z,0
2016-11-11T03:40:12.570Z,0
2016-11-11T03:41:12.611Z,0
2016-11-11T03:42:12.658Z,0
2016-11-11T03:43:12.745Z,0
2016-11-11T03:44:12.800Z,0
2016-11-11T03:45:12.848Z,0
2016-11-11T03:46:12.878Z,0
2016-11-11T03:47:12.936Z,0
2016-11-11T03:48:13.009Z,0
2016-11-11T03:49:13.348Z,0
2016-11-11T03:50:13.119Z,0
2016-11-11T03:51:13.164Z,0
2016-11-11T03:52:13.230Z,0
2016-11-11T03:53:13.288Z,0
2016-11-11T03:54:13.348Z,0
2016-11-11T03:55:13.400Z,0
2016-11-11T03:56:13.439Z,0
2016-11-11T03:57:13.503Z,0
2016-11-11T03:58:13.575Z,0
2016-11-11T03:59:13.604Z,0
2016-11-11T04:00:13.673Z,0
2016-11-11T04:01:13.725Z,0
2016-11-11T04:02:13.790Z,0
2016-11-11T04:03:13.853Z,0
2016-11-11T04:04:13.877Z,0
2016-11-11T04:05:13.946Z,0
2016-11-11T04:06:13.982Z,0
2016-11-11T04:07:14.057Z,0
2016-11-11T04:08:14.103Z,0
2016-11-11T04:09:14.167Z,0
2016-11-11T04:10:14.226Z,0
2016-11-11T04:11:14.281Z,0
2016-11-11T04:12:14.343Z,0
2016-11-11T04:13:14.384Z,0
2016-11-11T04:14:14.439Z,0
2016-11-11T04:15:14.499Z,0
2016-11-11T04:16:14.559Z,0
2016-11-11T04:17:14.603Z,0
2016-11-11T04:18:14.660Z,0
2016-11-11T04:19:14.714Z,0
2016-11-11T04:20:14.770Z,0
2016-11-11T04:21:14.832Z,0
2016-11-11T04:22:14.890Z,0
2016-11-11T04:23:14.942Z,0
2016-11-11T04:24:15.011Z,0
2016-11-11T04:25:15.051Z,0
2016-11-11T04:26:15.126Z,0
2016-11-11T04:27:15.159Z,0
2016-11-11T04:28:15.258Z,0
2016-11-11T04:29:15.276Z,0
2016-11-11T04:30:15.327Z,0
2016-11-11T04:31:15.400Z,0
2016-11-11T04:32:15.447Z,0
2016-11-11T04:33:15.482Z,0
2016-11-11T04:34:15.536Z,0
2016-11-11T04:35:15.603Z,0
2016-11-11T04:36:15.646Z,0
2016-11-11T04:37:15.714Z,0
2016-11-11T04:38:16.083Z,0
2016-11-11T04:39:15.835Z,0
2016-11-11T04:40:15.884Z,0
2016-11-11T04:41:15.936Z,0
2016-11-11T04:42:16.312Z,0
2016-11-11T04:43:16.056Z,0
2016-11-11T04:44:16.098Z,0
2016-11-11T04:45:16.144Z,0
2016-11-11T04:46:16.210Z,0
2016-11-11T04:47:16.272Z,0
2016-11-11T04:48:16.311Z,0
2016-11-11T04:49:16.385Z,0
2016-11-11T04:50:16.424Z,0
2016-11-11T04:51:16.487Z,0
2016-11-11T04:52:16.543Z,0
2016-11-11T04:53:16.624Z,0
2016-11-11T04:54:16.656Z,0
2016-11-11T04:55:16.728Z,0
2016-11-11T04:56:16.793Z,0
2016-11-11T04:57:16.808Z,0
2016-11-11T04:58:16.904Z,0
2016-11-11T04:59:16.947Z,0
2016-11-11T05:00:17.014Z,0
2016-11-11T05:01:17.068Z,0
2016-11-11T05:02:17.097Z,0
2016-11-11T05:03:17.155Z,0
2016-11-11T05:04:17.210Z,0
2016-11-11T05:05:17.274Z,0
2016-11-11T05:06:17.336Z,0
2016-11-11T05:07:17.380Z,0
2016-11-11T05:08:17.439Z,0
2016-11-11T05:09:17.478Z,0
2016-11-11T05:10:17.546Z,0
2016-11-11T05:11:17.607Z,0
2016-11-11T05:12:17.992Z,0
2016-11-11T05:13:17.735Z,0
2016-11-11T05:14:17.765Z,0
2016-11-11T05:15:17.827Z,0
2016-11-11T05:16:17.885Z,0
2016-11-11T05:17:17.945Z,0
2016-11-11T05:18:18.001Z,0
2016-11-11T05:19:18.049Z,0
2016-11-11T05:20:18.123Z,0
2016-11-11T05:21:18.165Z,0
2016-11-11T05:22:18.212Z,0
2016-11-11T05:23:18.272Z,0
2016-11-11T05:24:18.330Z,0
2016-11-11T05:25:18.411Z,0
2016-11-11T05:26:18.456Z,0
2016-11-11T05:27:18.489Z,0
2016-11-11T05:28:18.560Z,0
2016-11-11T05:29:18.588Z,0
2016-11-11T05:30:18.643Z,0
2016-11-11T05:31:18.720Z,0
2016-11-11T05:32:18.779Z,0
2016-11-11T05:33:18.825Z,0
2016-11-11T05:34:18.913Z,0
2016-11-11T05:35:18.962Z,0
2016-11-11T05:36:19.005Z,0
2016-11-11T05:37:19.069Z,0
2016-11-11T05:38:19.127Z,0
2016-11-11T05:39:19.175Z,0
2016-11-11T05:40:19.211Z,0
2016-11-11T05:41:19.287Z,0
2016-11-11T05:42:19.349Z,0
2016-11-11T05:43:19.390Z,0
2016-11-11T05:44:19.449Z,0
2016-11-11T05:45:19.493Z,0
2016-11-11T05:46:19.557Z,0
2016-11-11T05:47:19.609Z,0
2016-11-11T05:48:19.661Z,0
2016-11-11T05:49:19.712Z,0
2016-11-11T05:50:19.781Z,0
2016-11-11T05:51:19.816Z,0
2016-11-11T05:52:19.887Z,0
2016-11-11T05:53:19.946Z,0
2016-11-11T05:54:20.000Z,0
2016-11-11T05:55:20.058Z,0
2016-11-11T05:56:20.102Z,0
2016-11-11T05:57:20.189Z,0
2016-11-11T05:58:20.232Z,0
2016-11-11T05:59:20.261Z,0
2016-11-11T06:00:20.334Z,0
2016-11-11T06:01:20.411Z,0
2016-11-11T06:02:20.461Z,0
2016-11-11T06:03:20.481Z,4
2016-11-11T06:04:20.560Z,4
2016-11-11T06:05:20.605Z,4
2016-11-11T06:06:20.667Z,4
2016-11-11T06:07:20.724Z,4
2016-11-11T06:08:20.784Z,4
2016-11-11T06:09:20.833Z,4
2016-11-11T06:10:20.864Z,4
2016-11-11T06:11:20.944Z,4
2016-11-11T06:12:20.987Z,4
2016-11-11T06:13:21.058Z,8
2016-11-11T06:14:21.089Z,8
2016-11-11T06:15:21.154Z,8
2016-11-11T06:16:21.537Z,8
2016-11-11T06:17:21.284Z,8
2016-11-11T06:18:21.626Z,8
2016-11-11T06:19:21.688Z,12
2016-11-11T06:20:21.428Z,12
2016-11-11T06:21:21.491Z,12
2016-11-11T06:22:21.539Z,12
2016-11-11T06:23:21.604Z,16
2016-11-11T06:24:21.648Z,16
2016-11-11T06:25:21.708Z,20
2016-11-11T06:26:21.759Z,20
2016-11-11T06:27:21.815Z,20
2016-11-11T06:28:21.899Z,20
2016-11-11T06:29:21.941Z,20
2016-11-11T06:30:21.997Z,20
2016-11-11T06:31:22.043Z,20
2016-11-11T06:32:22.101Z,20
2016-11-11T06:33:22.148Z,20
2016-11-11T06:34:22.232Z,20
2016-11-11T06:35:22.269Z,20
2016-11-11T06:36:22.319Z,20
2016-11-11T06:37:22.366Z,20
2016-11-11T06:38:22.423Z,24
2016-11-11T06:39:22.497Z,24
2016-11-11T06:40:22.540Z,28
2016-11-11T06:41:22.580Z,32
2016-11-11T06:42:22.660Z,32
2016-11-11T06:43:22.696Z,36
2016-11-11T06:44:22.768Z,36
2016-11-11T06:45:22.809Z,40
2016-11-11T06:46:22.866Z,36
2016-11-11T06:47:22.930Z,36
2016-11-11T06:48:23.311Z,40
2016-11-11T06:49:23.049Z,40
2016-11-11T06:50:23.096Z,40
2016-11-11T06:51:23.156Z,40
2016-11-11T06:52:23.203Z,44
2016-11-11T06:53:23.258Z,48
2016-11-11T06:54:23.339Z,56
2016-11-11T06:55:23.387Z,64
2016-11-11T06:56:23.438Z,68
2016-11-11T06:57:23.505Z,80
2016-11-11T06:58:23.546Z,84
2016-11-11T06:59:23.608Z,92
2016-11-11T07:00:23.667Z,92
2016-11-11T07:01:23.713Z,88
2016-11-11T07:02:24.077Z,88
2016-11-11T07:03:23.825Z,88
2016-11-11T07:04:23.881Z,84
2016-11-11T07:05:23.926Z,84
2016-11-11T07:06:23.988Z,84
2016-11-11T07:07:24.044Z,88
2016-11-11T07:08:24.114Z,84
2016-11-11T07:09:24.156Z,92
2016-11-11T07:10:24.198Z,96
2016-11-11T07:11:24.259Z,92
2016-11-11T07:12:24.337Z,92
2016-11-11T07:13:24.391Z,96
2016-11-11T07:14:24.419Z,96
2016-11-11T07:15:24.466Z,96
2016-11-11T07:16:24.549Z,100
2016-11-11T07:17:24.581Z,104
2016-11-11T07:18:24.662Z,112
2016-11-11T07:19:24.689Z,120
2016-11-11T07:20:24.745Z,128
2016-11-11T07:21:24.840Z,124
2016-11-11T07:22:24.894Z,128
2016-11-11T07:23:24.927Z,128
2016-11-11T07:24:25.014Z,120
2016-11-11T07:25:25.376Z,124
2016-11-11T07:26:25.080Z,128
2016-11-11T07:27:25.175Z,128
2016-11-11T07:28:25.189Z,132
2016-11-11T07:29:25.281Z,136
2016-11-11T07:30:25.342Z,140
2016-11-11T07:31:25.376Z,144
2016-11-11T07:32:25.423Z,144
2016-11-11T07:33:25.491Z,140
2016-11-11T07:34:25.523Z,136
2016-11-11T07:35:25.617Z,124
2016-11-11T07:36:25.655Z,124
2016-11-11T07:37:25.729Z,120
2016-11-11T07:38:25.763Z,112
2016-11-11T07:39:25.825Z,112
2016-11-11T07:40:25.891Z,120
2016-11-11T07:41:25.947Z,132
2016-11-11T07:42:25.992Z,152
2016-11-11T07:43:26.049Z,164
2016-11-11T07:44:26.108Z,180
2016-11-11T07:45:26.167Z,176
2016-11-11T07:46:26.220Z,176
2016-11-11T07:47:26.610Z,188
2016-11-11T07:48:26.305Z,184
2016-11-11T07:49:26.385Z,180
2016-11-11T07:50:26.441Z,168
2016-11-11T07:51:26.487Z,164
2016-11-11T07:52:26.552Z,164
2016-11-11T07:53:26.586Z,168
2016-11-11T07:54:26.663Z,164
2016-11-11T07:55:26.722Z,172
2016-11-11T07:56:26.770Z,176
2016-11-11T07:57:26.827Z,176
2016-11-11T07:58:26.900Z,172
2016-11-11T07:59:26.933Z,176
2016-11-11T08:00:26.991Z,180
2016-11-11T08:01:27.070Z,180
2016-11-11T08:02:27.098Z,188
2016-11-11T08:03:27.163Z,200
2016-11-11T08:04:27.226Z,208
2016-11-11T08:05:27.296Z,212
2016-11-11T08:06:27.345Z,212
2016-11-11T08:07:27.391Z,224
2016-11-11T08:08:27.435Z,220
2016-11-11T08:09:27.791Z,212
2016-11-11T08:10:27.561Z,212
2016-11-11T08:11:27.622Z,216
2016-11-11T08:12:27.696Z,220
2016-11-11T08:13:27.733Z,232
2016-11-11T08:14:28.082Z,240
2016-11-11T08:15:27.829Z,244
2016-11-11T08:16:28.411Z,252
2016-11-11T08:17:27.939Z,268
2016-11-11T08:18:27.998Z,272
2016-11-11T08:19:28.048Z,280
2016-11-11T08:20:28.140Z,276
2016-11-11T08:21:28.165Z,280
2016-11-11T08:22:28.561Z,280
2016-11-11T08:23:28.277Z,272
2016-11-11T08:24:28.354Z,296
2016-11-11T08:25:28.384Z,308
2016-11-11T08:26:28.457Z,308
2016-11-11T08:27:28.495Z,344
2016-11-11T08:28:28.540Z,352
2016-11-11T08:29:28.622Z,344
2016-11-11T08:30:28.680Z,336
2016-11-11T08:31:28.746Z,340
2016-11-11T08:32:28.779Z,324
2016-11-11T08:33:28.828Z,352
2016-11-11T08:34:28.917Z,340
2016-11-11T08:35:28.945Z,352
2016-11-11T08:36:29.024Z,376
2016-11-11T08:37:29.061Z,372
2016-11-11T08:38:29.136Z,404
2016-11-11T08:39:29.180Z,424
2016-11-11T08:40:29.222Z,436
2016-11-11T08:41:29.267Z,428
2016-11-11T08:42:29.341Z,420
2016-11-11T08:43:29.603Z,420
2016-11-11T08:44:29.444Z,420
2016-11-11T08:45:29.526Z,428
2016-11-11T08:46:29.572Z,424
2016-11-11T08:47:29.637Z,440
2016-11-11T08:48:29.673Z,436
2016-11-11T08:49:29.738Z,432
2016-11-11T08:50:29.781Z,440
2016-11-11T08:51:29.838Z,456
2016-11-11T08:52:29.896Z,456
2016-11-11T08:53:29.976Z,464
2016-11-11T08:54:30.004Z,476
2016-11-11T08:55:30.045Z,468
2016-11-11T08:56:30.140Z,460
2016-11-11T08:57:30.177Z,456
2016-11-11T08:58:30.233Z,456
2016-11-11T08:59:30.296Z,444
2016-11-11T09:00:30.636Z,448
2016-11-11T09:01:30.409Z,456
2016-11-11T09:02:30.456Z,468
2016-11-11T09:03:30.525Z,476
2016-11-11T09:04:30.573Z,492
2016-11-11T09:05:30.602Z,496
2016-11-11T09:06:30.670Z,492
2016-11-11T09:07:30.766Z,500
2016-11-11T09:08:30.767Z,492
2016-11-11T09:09:30.825Z,496
2016-11-11T09:10:31.097Z,480
2016-11-11T09:11:30.934Z,484
2016-11-11T09:12:31.014Z,464
2016-11-11T09:13:31.052Z,452
2016-11-11T09:14:31.121Z,436
2016-11-11T09:15:31.183Z,440
2016-11-11T09:16:31.256Z,436
2016-11-11T09:17:31.293Z,448
2016-11-11T09:18:31.342Z,456
2016-11-11T09:19:31.405Z,444
2016-11-11T09:20:31.458Z,440
2016-11-11T09:21:31.514Z,428
2016-11-11T09:22:31.560Z,436
2016-11-11T09:23:31.630Z,428
2016-11-11T09:24:31.680Z,428
2016-11-11T09:25:31.724Z,432
2016-11-11T09:26:31.768Z,420
2016-11-11T09:27:31.837Z,416
2016-11-11T09:28:31.884Z,424
2016-11-11T09:29:31.955Z,428
2016-11-11T09:30:31.991Z,448
2016-11-11T09:31:32.085Z,456
2016-11-11T09:32:32.142Z,452
2016-11-11T09:33:32.164Z,464
2016-11-11T09:34:32.225Z,484
2016-11-11T09:35:32.266Z,496
2016-11-11T09:36:32.352Z,508
2016-11-11T09:37:32.623Z,512
2016-11-11T09:38:32.670Z,496
2016-11-11T09:39:32.494Z,456
2016-11-11T09:40:32.575Z,456
2016-11-11T09:41:32.602Z,468
2016-11-11T09:42:32.692Z,484
2016-11-11T09:43:32.735Z,492
2016-11-11T09:44:32.792Z,500
2016-11-11T09:45:32.826Z,488
2016-11-11T09:46:32.893Z,488
2016-11-11T09:47:32.962Z,488
2016-11-11T09:48:33.008Z,484
2016-11-11T09:49:33.046Z,492
2016-11-11T09:50:33.122Z,492
2016-11-11T09:51:33.171Z,500
2016-11-11T09:52:33.235Z,512
2016-11-11T09:53:33.279Z,516
2016-11-11T09:54:33.359Z,504
2016-11-11T09:55:33.398Z,508
2016-11-11T09:56:33.458Z,524
2016-11-11T09:57:33.496Z,520
2016-11-11T09:58:33.551Z,532
2016-11-11T09:59:33.627Z,552
2016-11-11T10:00:33.683Z,548
2016-11-11T10:01:33.733Z,524
2016-11-11T10:02:33.795Z,520
2016-11-11T10:03:33.832Z,528
2016-11-11T10:04:34.113Z,536
2016-11-11T10:05:33.947Z,532
2016-11-11T10:06:34.218Z,536
2016-11-11T10:07:34.069Z,548
2016-11-11T10:08:34.132Z,556
2016-11-11T10:09:34.177Z,548
2016-11-11T10:10:34.248Z,548
2016-11-11T10:11:34.292Z,564
2016-11-11T10:12:34.357Z,584
2016-11-11T10:13:34.398Z,616
2016-11-11T10:14:34.449Z,616
2016-11-11T10:15:34.523Z,632
2016-11-11T10:16:34.582Z,660
2016-11-11T10:17:34.638Z,700
2016-11-11T10:18:34.703Z,700
2016-11-11T10:19:34.724Z,736
2016-11-11T10:20:34.817Z,704
2016-11-11T10:21:34.874Z,708
2016-11-11T10:22:34.910Z,724
2016-11-11T10:23:34.967Z,776
2016-11-11T10:24:35.005Z,804
2016-11-11T10:25:35.071Z,840
2016-11-11T10:26:35.148Z,872
2016-11-11T10:27:35.198Z,904
2016-11-11T10:28:35.248Z,916
2016-11-11T10:29:35.338Z,892
2016-11-11T10:30:35.355Z,828
2016-11-11T10:31:35.616Z,812
2016-11-11T10:32:35.665Z,760
2016-11-11T10:33:35.527Z,748
2016-11-11T10:34:35.575Z,744
2016-11-11T10:35:35.632Z,772
2016-11-11T10:36:35.673Z,800
2016-11-11T10:37:35.747Z,808
2016-11-11T10:38:35.785Z,808
2016-11-11T10:39:35.867Z,828
2016-11-11T10:40:35.896Z,804
2016-11-11T10:41:35.956Z,792
2016-11-11T10:42:36.018Z,792
2016-11-11T10:43:36.078Z,824
2016-11-11T10:44:36.131Z,836
2016-11-11T10:45:36.201Z,808
2016-11-11T10:46:36.242Z,748
2016-11-11T10:47:36.303Z,684
2016-11-11T10:48:36.331Z,664
2016-11-11T10:49:36.393Z,676
2016-11-11T10:50:36.457Z,672
2016-11-11T10:51:36.523Z,652
2016-11-11T10:52:36.569Z,660
2016-11-11T10:53:36.635Z,660
2016-11-11T10:54:36.678Z,648
2016-11-11T10:55:36.727Z,664
2016-11-11T10:56:36.806Z,680
2016-11-11T10:57:36.844Z,660
2016-11-11T10:58:37.113Z,624
2016-11-11T10:59:36.977Z,616
2016-11-11T11:00:37.016Z,596
2016-11-11T11:01:37.106Z,568
2016-11-11T11:02:37.142Z,536
2016-11-11T11:03:37.176Z,540
2016-11-11T11:04:37.218Z,536
2016-11-11T11:05:37.284Z,540
2016-11-11T11:06:37.336Z,560
2016-11-11T11:07:37.400Z,604
2016-11-11T11:08:37.462Z,624
2016-11-11T11:09:37.519Z,616
2016-11-11T11:10:37.591Z,632
2016-11-11T11:11:37.621Z,632
2016-11-11T11:12:37.665Z,632
2016-11-11T11:13:37.739Z,656
2016-11-11T11:14:37.808Z,664
2016-11-11T11:15:38.175Z,648
2016-11-11T11:16:37.890Z,620
2016-11-11T11:17:38.264Z,636
2016-11-11T11:18:37.993Z,632
2016-11-11T11:19:38.079Z,636
2016-11-11T11:20:38.118Z,656
2016-11-11T11:21:38.157Z,632
2016-11-11T11:22:38.229Z,616
2016-11-11T11:23:38.290Z,620
2016-11-11T11:24:38.533Z,664
2016-11-11T11:25:38.610Z,672
2016-11-11T11:26:38.471Z,616
2016-11-11T11:27:38.508Z,584
2016-11-11T11:28:38.547Z,576
2016-11-11T11:29:38.621Z,640
2016-11-11T11:30:38.718Z,632
2016-11-11T11:31:38.728Z,612
2016-11-11T11:32:38.768Z,596
2016-11-11T11:33:38.850Z,592
2016-11-11T11:34:38.879Z,580
2016-11-11T11:35:38.940Z,604
2016-11-11T11:36:39.000Z,624
2016-11-11T11:37:39.066Z,616
2016-11-11T11:38:39.121Z,612
2016-11-11T11:39:39.157Z,628
2016-11-11T11:40:39.217Z,628
2016-11-11T11:41:39.267Z,652
2016-11-11T11:42:39.356Z,652
2016-11-11T11:43:39.376Z,680
2016-11-11T11:44:39.478Z,748
2016-11-11T11:45:39.509Z,776
2016-11-11T11:46:39.568Z,680
2016-11-11T11:47:39.607Z,632
2016-11-11T11:48:39.685Z,652
2016-11-11T11:49:39.734Z,664
2016-11-11T11:50:39.806Z,676
2016-11-11T11:51:39.827Z,668
2016-11-11T11:52:39.916Z,684
2016-11-11T11:53:39.957Z,708
2016-11-11T11:54:40.016Z,680
2016-11-11T11:55:40.075Z,664
2016-11-11T11:56:40.124Z,640
2016-11-11T11:57:40.162Z,648
2016-11-11T11:58:40.224Z,660
2016-11-11T11:59:40.281Z,628
2016-11-11T12:00:40.358Z,608
2016-11-11T12:01:40.400Z,604
2016-11-11T12:02:40.465Z,644
2016-11-11T12:03:40.509Z,680
2016-11-11T12:04:40.552Z,692
2016-11-11T12:05:40.628Z,636
2016-11-11T12:06:40.674Z,612
2016-11-11T12:07:40.728Z,620
2016-11-11T12:08:40.799Z,636
2016-11-11T12:09:40.874Z,652
2016-11-11T12:10:40.924Z,648
2016-11-11T12:11:40.967Z,620
2016-11-11T12:12:41.027Z,624
2016-11-11T12:13:41.057Z,624
2016-11-11T12:14:41.126Z,624
2016-11-11T12:15:41.182Z,624
2016-11-11T12:16:41.236Z,660
2016-11-11T12:17:41.291Z,676
2016-11-11T12:18:41.354Z,700
2016-11-11T12:19:41.417Z,676
2016-11-11T12:20:41.460Z,664
2016-11-11T12:21:41.517Z,648
2016-11-11T12:22:41.601Z,664
2016-11-11T12:23:41.645Z,676
2016-11-11T12:24:41.686Z,648
2016-11-11T12:25:41.748Z,620
2016-11-11T12:26:41.808Z,596
2016-11-11T12:27:41.892Z,596
2016-11-11T12:28:41.900Z,612
2016-11-11T12:29:41.978Z,612
2016-11-11T12:30:42.015Z,620
2016-11-11T12:31:42.072Z,612
2016-11-11T12:32:42.130Z,608
2016-11-11T12:33:42.186Z,608
2016-11-11T12:34:42.255Z,600
2016-11-11T12:35:42.318Z,604
2016-11-11T12:36:42.362Z,584
2016-11-11T12:37:42.419Z,564
2016-11-11T12:38:42.474Z,544
2016-11-11T12:39:42.535Z,548
2016-11-11T12:40:42.595Z,532
2016-11-11T12:41:42.634Z,508
2016-11-11T12:42:42.693Z,508
2016-11-11T12:43:42.752Z,504
2016-11-11T12:44:42.810Z,512
2016-11-11T12:45:42.861Z,516
2016-11-11T12:46:42.910Z,480
2016-11-11T12:47:42.958Z,496
2016-11-11T12:48:43.033Z,508
2016-11-11T12:49:43.091Z,528
2016-11-11T12:50:43.124Z,520
2016-11-11T12:51:43.184Z,512
2016-11-11T12:52:43.547Z,516
2016-11-11T12:53:43.297Z,500
2016-11-11T12:54:43.359Z,516
2016-11-11T12:55:43.418Z,516
2016-11-11T12:56:43.456Z,516
2016-11-11T12:57:43.539Z,524
2016-11-11T12:58:43.585Z,540
2016-11-11T12:59:43.626Z,528
2016-11-11T13:00:43.689Z,524
2016-11-11T13:01:43.742Z,524
2016-11-11T13:02:43.819Z,504
2016-11-11T13:03:43.855Z,508
2016-11-11T13:04:43.926Z,516
2016-11-11T13:05:43.981Z,544
2016-11-11T13:06:44.035Z,560
2016-11-11T13:07:44.094Z,576
2016-11-11T13:08:44.150Z,588
2016-11-11T13:09:44.206Z,608
2016-11-11T13:10:44.263Z,608
2016-11-11T13:11:44.301Z,612
2016-11-11T13:12:44.356Z,612
2016-11-11T13:13:44.429Z,616
2016-11-11T13:14:44.470Z,604
2016-11-11T13:15:44.524Z,612
2016-11-11T13:16:44.581Z,632
2016-11-11T13:17:44.635Z,620
2016-11-11T13:18:44.699Z,584
2016-11-11T13:19:44.759Z,552
2016-11-11T13:20:44.804Z,536
2016-11-11T13:21:44.857Z,508
2016-11-11T13:22:44.923Z,520
2016-11-11T13:23:44.983Z,508
2016-11-11T13:24:45.023Z,488
2016-11-11T13:25:45.087Z,456
2016-11-11T13:26:45.129Z,448
2016-11-11T13:27:45.207Z,404
2016-11-11T13:28:45.575Z,384
2016-11-11T13:29:45.306Z,384
2016-11-11T13:30:45.354Z,376
2016-11-11T13:31:45.428Z,376
2016-11-11T13:32:45.489Z,368
2016-11-11T13:33:45.551Z,336
2016-11-11T13:34:45.610Z,328
2016-11-11T13:35:45.665Z,348
2016-11-11T13:36:45.704Z,360
2016-11-11T13:37:45.767Z,352
2016-11-11T13:38:45.829Z,348
2016-11-11T13:39:45.865Z,348
2016-11-11T13:40:45.915Z,368
2016-11-11T13:41:45.987Z,376
2016-11-11T13:42:46.019Z,388
2016-11-11T13:43:46.083Z,388
2016-11-11T13:44:46.144Z,376
2016-11-11T13:45:46.204Z,360
2016-11-11T13:46:46.264Z,352
2016-11-11T13:47:46.333Z,360
2016-11-11T13:48:46.369Z,364
2016-11-11T13:49:46.441Z,364
2016-11-11T13:50:46.473Z,352
2016-11-11T13:51:46.521Z,328
2016-11-11T13:52:46.616Z,316
2016-11-11T13:53:46.647Z,308
2016-11-11T13:54:46.703Z,304
2016-11-11T13:55:47.122Z,292
2016-11-11T13:56:46.823Z,276
2016-11-11T13:57:46.897Z,256
2016-11-11T13:58:46.976Z,248
2016-11-11T13:59:46.989Z,228
2016-11-11T14:00:47.048Z,220
2016-11-11T14:01:47.109Z,216
2016-11-11T14:02:47.141Z,228
2016-11-11T14:03:47.231Z,240
2016-11-11T14:04:47.283Z,260
2016-11-11T14:05:47.325Z,264
2016-11-11T14:06:47.387Z,260
2016-11-11T14:07:47.438Z,256
2016-11-11T14:08:47.500Z,252
2016-11-11T14:09:47.566Z,252
2016-11-11T14:10:47.603Z,244
2016-11-11T14:11:47.652Z,240
2016-11-11T14:12:47.709Z,248
2016-11-11T14:13:47.751Z,260
2016-11-11T14:14:47.824Z,276